createdAt,value
2017-04-03T00:00:00.444Z,0
2017-04-03T00:00:41.029Z,0
2017-04-03T00:02:58.970Z,0
2017-04-03T00:03:39.552Z,0
2017-04-03T00:04:20.141Z,0
2017-04-03T00:05:00.720Z,0
2017-04-03T00:05:41.309Z,0
2017-04-03T00:06:21.900Z,0
2017-04-03T00:07:02.480Z,0
2017-04-03T00:07:43.056Z,0
2017-04-03T00:08:23.639Z,0
2017-04-03T00:09:04.223Z,0
2017-04-03T00:09:44.799Z,0
2017-04-03T00:10:25.384Z,0
2017-04-03T00:12:23.096Z,0
2017-04-03T00:13:03.682Z,0
2017-04-03T00:13:44.265Z,0
2017-04-03T00:14:24.850Z,0
2017-04-03T00:15:05.438Z,0
2017-04-03T00:15:46.018Z,0
2017-04-03T00:16:26.590Z,0
2017-04-03T00:17:07.173Z,0
2017-04-03T00:17:47.750Z,0
2017-04-03T00:18:28.330Z,0
2017-04-03T00:19:08.938Z,0
2017-04-03T00:19:49.497Z,0
2017-04-03T00:20:30.074Z,0
2017-04-03T00:21:10.657Z,0
2017-04-03T00:21:51.239Z,0
2017-04-03T00:22:31.808Z,0
2017-04-03T00:23:12.388Z,0
2017-04-03T00:23:52.970Z,0
2017-04-03T00:24:33.551Z,0
2017-04-03T00:25:14.134Z,0
2017-04-03T00:25:54.711Z,0
2017-04-03T00:26:35.294Z,0
2017-04-03T00:27:15.881Z,0
2017-04-03T00:27:56.460Z,0
2017-04-03T00:28:37.041Z,0
2017-04-03T00:29:17.624Z,0
2017-04-03T00:29:58.217Z,0
2017-04-03T00:30:38.800Z,0
2017-04-03T00:31:19.384Z,0
2017-04-03T00:31:59.959Z,0
2017-04-03T00:32:55.342Z,0
2017-04-03T00:33:35.914Z,0
2017-04-03T00:34:16.492Z,0
2017-04-03T00:34:57.076Z,0
2017-04-03T00:35:37.652Z,0
2017-04-03T00:36:18.238Z,0
2017-04-03T00:36:58.812Z,0
2017-04-03T00:37:39.387Z,0
2017-04-03T00:38:19.972Z,0
2017-04-03T00:39:00.556Z,0
2017-04-03T00:39:41.141Z,0
2017-04-03T00:40:21.719Z,0
2017-04-03T00:41:02.298Z,0
2017-04-03T00:41:42.881Z,0
2017-04-03T00:42:23.467Z,0
2017-04-03T00:43:04.048Z,0
2017-04-03T00:43:44.632Z,0
2017-04-03T00:44:25.214Z,0
2017-04-03T00:45:05.798Z,0
2017-04-03T00:45:46.385Z,0
2017-04-03T00:46:26.964Z,0
2017-04-03T00:47:07.545Z,0
2017-04-03T00:47:48.119Z,0
2017-04-03T00:48:28.710Z,0
2017-04-03T00:49:24.120Z,0
2017-04-03T00:50:04.707Z,0
2017-04-03T00:50:45.292Z,0
2017-04-03T00:51:25.875Z,0
2017-04-03T00:52:06.465Z,0
2017-04-03T00:52:47.047Z,0
2017-04-03T00:53:27.667Z,0
2017-04-03T00:54:08.225Z,0
2017-04-03T00:54:48.796Z,0
2017-04-03T00:55:29.379Z,0
2017-04-03T00:56:09.962Z,0
2017-04-03T00:58:43.159Z,0
2017-04-03T00:59:23.739Z,0
2017-04-03T01:00:04.325Z,0
2017-04-03T01:00:44.905Z,0
2017-04-03T01:01:25.493Z,0
2017-04-03T01:02:06.073Z,0
2017-04-03T01:02:46.656Z,0
2017-04-03T01:03:27.237Z,0
2017-04-03T01:04:07.822Z,0
2017-04-03T01:04:48.406Z,0
2017-04-03T01:05:28.990Z,0
2017-04-03T01:06:09.575Z,0
2017-04-03T01:06:50.150Z,0
2017-04-03T01:07:30.731Z,0
2017-04-03T01:08:11.317Z,0
2017-04-03T01:08:51.913Z,0
2017-04-03T01:09:32.473Z,0
2017-04-03T01:10:13.048Z,0
2017-04-03T01:10:53.626Z,0
2017-04-03T01:11:34.208Z,0
2017-04-03T01:12:14.788Z,0
2017-04-03T01:12:55.366Z,0
2017-04-03T01:13:35.947Z,0
2017-04-03T01:14:16.522Z,0
2017-04-03T01:14:57.112Z,0
2017-04-03T01:15:37.698Z,0
2017-04-03T01:16:18.284Z,0
2017-04-03T01:16:58.866Z,0
2017-04-03T01:17:39.454Z,0
2017-04-03T01:18:20.030Z,0
2017-04-03T01:19:00.620Z,0
2017-04-03T01:19:41.200Z,0
2017-04-03T01:20:21.786Z,0
2017-04-03T01:21:17.177Z,0
2017-04-03T01:21:57.764Z,0
2017-04-03T01:22:53.126Z,0
2017-04-03T01:23:33.709Z,0
2017-04-03T01:24:14.296Z,0
2017-04-03T01:24:54.875Z,0
2017-04-03T01:25:35.459Z,0
2017-04-03T01:26:16.041Z,0
2017-04-03T01:26:56.632Z,0
2017-04-03T01:27:37.213Z,0
2017-04-03T01:28:17.792Z,0
2017-04-03T01:28:58.378Z,0
2017-04-03T01:29:39.033Z,0
2017-04-03T01:30:19.618Z,0
2017-04-03T01:31:00.199Z,0
2017-04-03T01:31:40.781Z,0
2017-04-03T01:32:21.362Z,0
2017-04-03T01:33:01.952Z,0
2017-04-03T01:33:42.532Z,0
2017-04-03T01:34:23.114Z,0
2017-04-03T01:35:03.699Z,0
2017-04-03T01:35:44.272Z,0
2017-04-03T01:36:24.868Z,0
2017-04-03T01:37:05.447Z,0
2017-04-03T01:37:46.150Z,0
2017-04-03T01:38:26.738Z,0
2017-04-03T01:39:07.320Z,0
2017-04-03T01:39:47.905Z,0
2017-04-03T01:40:28.488Z,0
2017-04-03T01:41:09.068Z,0
2017-04-03T01:41:49.651Z,0
2017-04-03T01:42:30.236Z,0
2017-04-03T01:43:10.822Z,0
2017-04-03T01:43:51.392Z,0
2017-04-03T01:44:31.960Z,0
2017-04-03T01:45:12.548Z,0
2017-04-03T01:45:53.127Z,0
2017-04-03T01:46:33.711Z,0
2017-04-03T01:47:14.291Z,0
2017-04-03T01:47:54.872Z,0
2017-04-03T01:48:35.447Z,0
2017-04-03T01:49:16.030Z,0
2017-04-03T01:49:56.616Z,0
2017-04-03T01:50:37.204Z,0
2017-04-03T01:51:17.783Z,0
2017-04-03T01:51:58.367Z,0
2017-04-03T01:52:38.955Z,0
2017-04-03T01:53:19.539Z,0
2017-04-03T01:54:00.119Z,0
2017-04-03T01:54:40.697Z,0
2017-04-03T01:55:21.282Z,0
2017-04-03T01:56:01.862Z,0
2017-04-03T01:56:42.447Z,0
2017-04-03T01:57:23.030Z,0
2017-04-03T01:58:03.621Z,0
2017-04-03T01:58:44.205Z,0
2017-04-03T01:59:24.791Z,0
2017-04-03T02:00:05.375Z,0
2017-04-03T02:00:45.961Z,0
2017-04-03T02:01:26.555Z,0
2017-04-03T02:02:07.127Z,0
2017-04-03T02:02:47.717Z,0
2017-04-03T02:03:28.301Z,0
2017-04-03T02:04:08.882Z,0
2017-04-03T02:04:49.461Z,0
2017-04-03T02:05:30.044Z,0
2017-04-03T02:06:10.637Z,0
2017-04-03T02:06:51.213Z,0
2017-04-03T02:07:31.798Z,0
2017-04-03T02:08:12.374Z,0
2017-04-03T02:08:52.956Z,0
2017-04-03T02:09:33.542Z,0
2017-04-03T02:10:14.127Z,0
2017-04-03T02:10:54.706Z,0
2017-04-03T02:11:35.290Z,0
2017-04-03T02:12:15.873Z,0
2017-04-03T02:12:56.464Z,0
2017-04-03T02:13:37.045Z,0
2017-04-03T02:14:17.630Z,0
2017-04-03T02:14:58.213Z,0
2017-04-03T02:15:38.794Z,0
2017-04-03T02:16:19.372Z,0
2017-04-03T02:16:59.955Z,0
2017-04-03T02:17:40.543Z,0
2017-04-03T02:18:21.129Z,0
2017-04-03T02:19:01.708Z,0
2017-04-03T02:19:42.292Z,0
2017-04-03T02:20:22.878Z,0
2017-04-03T02:21:03.466Z,0
2017-04-03T02:21:44.049Z,0
2017-04-03T02:22:24.633Z,0
2017-04-03T02:23:05.213Z,0
2017-04-03T02:23:45.796Z,0
2017-04-03T02:24:26.375Z,0
2017-04-03T02:25:06.956Z,0
2017-04-03T02:25:47.543Z,0
2017-04-03T02:26:28.117Z,0
2017-04-03T02:27:08.702Z,0
2017-04-03T02:27:49.292Z,0
2017-04-03T02:28:29.875Z,0
2017-04-03T02:29:10.460Z,0
2017-04-03T02:29:51.048Z,0
2017-04-03T02:32:24.245Z,0
2017-04-03T02:33:04.825Z,0
2017-04-03T02:33:45.411Z,0
2017-04-03T02:34:25.985Z,0
2017-04-03T02:35:06.572Z,0
2017-04-03T02:35:47.141Z,0
2017-04-03T02:36:27.717Z,0
2017-04-03T02:37:09.166Z,0
2017-04-03T02:37:49.295Z,0
2017-04-03T02:38:29.872Z,0
2017-04-03T02:39:10.462Z,0
2017-04-03T02:39:51.046Z,0
2017-04-03T02:40:31.635Z,0
2017-04-03T02:43:41.277Z,0
2017-04-03T02:45:59.220Z,0
2017-04-03T02:46:39.799Z,0
2017-04-03T02:47:20.377Z,0
2017-04-03T02:48:00.957Z,0
2017-04-03T02:48:41.537Z,0
2017-04-03T02:49:22.112Z,0
2017-04-03T02:50:02.693Z,0
2017-04-03T02:50:43.267Z,0
2017-04-03T02:51:23.855Z,0
2017-04-03T02:52:04.428Z,0
2017-04-03T02:52:45.014Z,0
2017-04-03T02:53:25.600Z,0
2017-04-03T02:54:06.170Z,0
2017-04-03T02:54:46.750Z,0
2017-04-03T02:55:27.328Z,0
2017-04-03T02:57:45.258Z,0
2017-04-03T02:58:25.831Z,0
2017-04-03T02:59:06.416Z,0
2017-04-03T02:59:46.995Z,0
2017-04-03T03:00:27.575Z,0
2017-04-03T03:01:08.146Z,0
2017-04-03T03:01:48.740Z,0
2017-04-03T03:02:29.320Z,0
2017-04-03T03:03:09.901Z,0
2017-04-03T03:03:50.503Z,0
2017-04-03T03:04:31.062Z,0
2017-04-03T03:05:11.639Z,0
2017-04-03T03:05:52.225Z,0
2017-04-03T03:06:32.804Z,0
2017-04-03T03:07:13.386Z,0
2017-04-03T03:07:53.968Z,0
2017-04-03T03:08:34.548Z,0
2017-04-03T03:09:15.131Z,0
2017-04-03T03:11:33.081Z,0
2017-04-03T03:12:13.668Z,0
2017-04-03T03:12:54.278Z,0
2017-04-03T03:13:34.826Z,0
2017-04-03T03:14:15.406Z,0
2017-04-03T03:14:56.022Z,0
2017-04-03T03:15:36.570Z,0
2017-04-03T03:16:17.158Z,0
2017-04-03T03:16:57.737Z,0
2017-04-03T03:17:38.318Z,0
2017-04-03T03:18:18.904Z,0
2017-04-03T03:18:59.478Z,0
2017-04-03T03:19:40.078Z,0
2017-04-03T03:20:20.661Z,0
2017-04-03T03:21:01.234Z,0
2017-04-03T03:21:42.465Z,0
2017-04-03T03:22:23.339Z,0
2017-04-03T03:23:04.197Z,0
2017-04-03T03:23:45.231Z,0
2017-04-03T03:24:25.987Z,0
2017-04-03T03:25:07.002Z,0
2017-04-03T03:25:47.589Z,0
2017-04-03T03:26:28.365Z,0
2017-04-03T03:27:09.157Z,0
2017-04-03T03:27:49.890Z,0
2017-04-03T03:28:30.797Z,0
2017-04-03T03:29:11.365Z,0
2017-04-03T03:29:52.038Z,0
2017-04-03T03:30:33.085Z,0
2017-04-03T03:31:14.015Z,0
2017-04-03T03:31:54.585Z,0
2017-04-03T03:32:35.512Z,0
2017-04-03T03:33:16.394Z,0
2017-04-03T03:33:57.375Z,0
2017-04-03T03:34:38.278Z,0
2017-04-03T03:35:18.859Z,0
2017-04-03T03:35:59.763Z,0
2017-04-03T03:36:40.724Z,0
2017-04-03T03:37:21.669Z,0
2017-04-03T03:38:02.437Z,0
2017-04-03T03:38:43.350Z,0
2017-04-03T03:39:24.077Z,0
2017-04-03T03:40:04.760Z,0
2017-04-03T03:40:45.345Z,0
2017-04-03T03:41:25.998Z,0
2017-04-03T03:42:06.576Z,0
2017-04-03T03:42:47.159Z,0
2017-04-03T03:43:27.736Z,0
2017-04-03T03:44:08.310Z,0
2017-04-03T03:44:48.895Z,0
2017-04-03T03:45:29.474Z,0
2017-04-03T03:46:10.053Z,0
2017-04-03T03:46:50.629Z,0
2017-04-03T03:47:31.205Z,0
2017-04-03T03:48:11.786Z,0
2017-04-03T03:48:52.364Z,0
2017-04-03T03:49:32.949Z,0
2017-04-03T03:50:13.527Z,0
2017-04-03T03:50:54.116Z,0
2017-04-03T03:51:34.702Z,0
2017-04-03T03:52:15.283Z,0
2017-04-03T03:52:55.847Z,0
2017-04-03T03:53:36.432Z,0
2017-04-03T03:54:17.028Z,0
2017-04-03T03:54:57.641Z,0
2017-04-03T03:55:38.191Z,0
2017-04-03T03:56:18.765Z,0
2017-04-03T03:56:59.343Z,0
2017-04-03T03:57:39.923Z,0
2017-04-03T03:58:20.507Z,0
2017-04-03T03:59:01.088Z,0
2017-04-03T03:59:41.663Z,0
2017-04-03T04:00:22.260Z,0
2017-04-03T04:01:02.838Z,0
2017-04-03T04:01:43.417Z,0
2017-04-03T04:02:24.010Z,0
2017-04-03T04:03:04.592Z,0
2017-04-03T04:03:45.164Z,0
2017-04-03T04:04:25.744Z,0
2017-04-03T04:05:06.322Z,0
2017-04-03T04:05:46.911Z,0
2017-04-03T04:06:27.484Z,0
2017-04-03T04:07:08.118Z,0
2017-04-03T04:07:48.657Z,0
2017-04-03T04:08:29.231Z,0
2017-04-03T04:09:09.811Z,0
2017-04-03T04:09:50.392Z,0
2017-04-03T04:10:30.977Z,0
2017-04-03T04:11:11.558Z,0
2017-04-03T04:11:52.147Z,0
2017-04-03T04:12:32.721Z,0
2017-04-03T04:13:13.301Z,0
2017-04-03T04:13:53.880Z,0
2017-04-03T04:14:34.461Z,0
2017-04-03T04:15:15.042Z,0
2017-04-03T04:15:55.622Z,0
2017-04-03T04:16:36.207Z,0
2017-04-03T04:17:16.788Z,0
2017-04-03T04:17:57.374Z,0
2017-04-03T04:18:37.956Z,0
2017-04-03T04:19:18.532Z,0
2017-04-03T04:19:59.111Z,0
2017-04-03T04:20:39.692Z,4
2017-04-03T04:21:20.274Z,4
2017-04-03T04:22:00.859Z,0
2017-04-03T04:22:41.438Z,4
2017-04-03T04:23:22.023Z,4
2017-04-03T04:24:02.593Z,4
2017-04-03T04:24:43.165Z,4
2017-04-03T04:25:23.739Z,4
2017-04-03T04:26:04.327Z,4
2017-04-03T04:26:44.905Z,8
2017-04-03T04:27:25.483Z,8
2017-04-03T04:28:06.063Z,8
2017-04-03T04:28:46.648Z,12
2017-04-03T04:30:44.350Z,16
2017-04-03T04:31:24.937Z,16
2017-04-03T04:32:05.513Z,16
2017-04-03T04:32:46.089Z,20
2017-04-03T04:33:26.673Z,20
2017-04-03T04:34:07.251Z,28
2017-04-03T04:34:47.824Z,28
2017-04-03T04:35:28.404Z,32
2017-04-03T04:36:08.989Z,32
2017-04-03T04:36:49.563Z,36
2017-04-03T04:37:30.147Z,44
2017-04-03T04:38:10.713Z,44
2017-04-03T04:38:51.285Z,48
2017-04-03T04:39:31.858Z,56
2017-04-03T04:40:12.446Z,56
2017-04-03T04:40:53.052Z,64
2017-04-03T04:41:33.633Z,68
2017-04-03T04:42:14.207Z,76
2017-04-03T04:42:54.784Z,80
2017-04-03T04:43:35.364Z,88
2017-04-03T04:44:15.925Z,96
2017-04-03T04:46:49.115Z,120
2017-04-03T04:47:29.686Z,132
2017-04-03T04:48:10.254Z,140
2017-04-03T04:48:50.838Z,152
2017-04-03T04:49:31.424Z,164
2017-04-03T04:50:12.008Z,176
2017-04-03T04:50:52.587Z,184
2017-04-03T04:51:33.176Z,200
2017-04-03T04:52:13.747Z,212
2017-04-03T04:52:54.319Z,232
2017-04-03T04:53:34.907Z,244
2017-04-03T04:54:15.485Z,264
2017-04-03T04:54:56.068Z,280
2017-04-03T04:55:36.642Z,296
2017-04-03T04:56:17.231Z,316
2017-04-03T04:56:57.802Z,332
2017-04-03T04:57:38.369Z,352
2017-04-03T04:59:36.082Z,412
2017-04-03T05:00:16.663Z,432
2017-04-03T05:00:57.248Z,460
2017-04-03T05:01:37.831Z,488
2017-04-03T05:02:18.412Z,520
2017-04-03T05:02:58.989Z,552
2017-04-03T05:03:39.553Z,584
2017-04-03T05:04:20.135Z,624
2017-04-03T05:05:00.710Z,660
2017-04-03T05:05:41.289Z,696
2017-04-03T05:06:21.857Z,736
2017-04-03T05:07:02.438Z,776
2017-04-03T05:07:43.021Z,820
2017-04-03T05:08:23.586Z,864
2017-04-03T05:09:04.166Z,908
2017-04-03T05:09:44.755Z,956
2017-04-03T05:10:25.320Z,1008
2017-04-03T05:11:05.892Z,1056
2017-04-03T05:11:46.480Z,1104
2017-04-03T05:12:27.062Z,1156
2017-04-03T05:13:07.633Z,1208
2017-04-03T05:13:48.213Z,1268
2017-04-03T05:14:28.804Z,1332
2017-04-03T05:15:09.382Z,1400
2017-04-03T05:15:49.956Z,1460
2017-04-03T05:16:30.539Z,1528
2017-04-03T05:17:11.116Z,1592
2017-04-03T05:17:51.700Z,1664
2017-04-03T05:18:32.274Z,1740
2017-04-03T05:19:12.852Z,1824
2017-04-03T05:19:53.428Z,1916
2017-04-03T05:20:34.005Z,2012
2017-04-03T05:21:14.590Z,2108
2017-04-03T05:21:55.162Z,2200
2017-04-03T05:22:35.745Z,2304
2017-04-03T05:23:16.333Z,2404
2017-04-03T05:23:56.910Z,2512
2017-04-03T05:24:37.490Z,2616
2017-04-03T05:25:18.077Z,2720
2017-04-03T05:25:58.651Z,2824
2017-04-03T05:26:39.226Z,2932
2017-04-03T05:27:19.805Z,3040
2017-04-03T05:28:00.383Z,3152
2017-04-03T05:28:40.958Z,3268
2017-04-03T05:29:21.542Z,3380
2017-04-03T05:30:02.130Z,3492
2017-04-03T05:32:35.310Z,3904
2017-04-03T05:33:15.889Z,4012
2017-04-03T05:33:56.456Z,4124
2017-04-03T05:34:37.038Z,4244
2017-04-03T05:35:17.618Z,4364
2017-04-03T05:35:58.190Z,4480
2017-04-03T05:36:38.749Z,4592
2017-04-03T05:37:19.335Z,4700
2017-04-03T05:37:59.916Z,4812
2017-04-03T05:38:40.480Z,4916
2017-04-03T05:39:21.056Z,5016
2017-04-03T05:40:01.635Z,5104
2017-04-03T05:40:42.216Z,5196
2017-04-03T05:43:15.393Z,5432
2017-04-03T05:43:55.975Z,5444
2017-04-03T05:44:51.318Z,5432
2017-04-03T05:45:31.887Z,5416
2017-04-03T05:46:12.462Z,5420
2017-04-03T05:46:53.046Z,5436
2017-04-03T05:47:33.620Z,5456
2017-04-03T05:48:14.189Z,5456
2017-04-03T05:48:54.781Z,5444
2017-04-03T05:49:35.355Z,5428
2017-04-03T05:50:15.943Z,5456
2017-04-03T05:50:56.530Z,5516
2017-04-03T05:51:37.110Z,5612
2017-04-03T05:52:17.680Z,5728
2017-04-03T05:52:58.253Z,5836
2017-04-03T05:53:38.833Z,5944
2017-04-03T05:54:19.413Z,6052
2017-04-03T05:54:59.997Z,6184
2017-04-03T05:55:40.582Z,6328
2017-04-03T05:56:21.171Z,6484
2017-04-03T05:57:01.745Z,6628
2017-04-03T05:57:42.331Z,6792
2017-04-03T05:58:22.905Z,6984
2017-04-03T05:59:03.486Z,7240
2017-04-03T05:59:44.068Z,7564
2017-04-03T06:00:24.655Z,7844
2017-04-03T06:01:05.236Z,8168
2017-04-03T06:01:45.819Z,8496
2017-04-03T06:02:26.399Z,8728
2017-04-03T06:03:06.983Z,8876
2017-04-03T06:03:47.563Z,8952
2017-04-03T06:04:28.148Z,8920
2017-04-03T06:05:08.736Z,8764
2017-04-03T06:05:49.315Z,8528
2017-04-03T06:06:29.901Z,8264
2017-04-03T06:07:10.487Z,7920
2017-04-03T06:07:51.097Z,7568
2017-04-03T06:08:31.646Z,7272
2017-04-03T06:09:12.212Z,7024
2017-04-03T06:09:52.831Z,6784
2017-04-03T06:10:33.362Z,6556
2017-04-03T06:11:13.944Z,6308
2017-04-03T06:11:54.525Z,6084
2017-04-03T06:12:35.106Z,5884
2017-04-03T06:13:15.684Z,5712
2017-04-03T06:13:56.269Z,5572
2017-04-03T06:14:36.850Z,5452
2017-04-03T06:15:17.427Z,5356
2017-04-03T06:15:58.017Z,5272
2017-04-03T06:16:38.599Z,5216
2017-04-03T06:17:19.183Z,5168
2017-04-03T06:17:59.767Z,5120
2017-04-03T06:18:40.348Z,5092
2017-04-03T06:19:20.932Z,5132
2017-04-03T06:20:16.324Z,5604
2017-04-03T06:20:56.905Z,4964
2017-04-03T06:21:37.491Z,4924
2017-04-03T06:22:18.073Z,4892
2017-04-03T06:22:58.646Z,4840
2017-04-03T06:23:39.225Z,4800
2017-04-03T06:24:19.807Z,4788
2017-04-03T06:25:00.397Z,4764
2017-04-03T06:25:40.984Z,4736
2017-04-03T06:26:21.564Z,4816
2017-04-03T06:27:02.129Z,4656
2017-04-03T06:27:42.709Z,4660
2017-04-03T06:28:23.296Z,5400
2017-04-03T06:29:03.876Z,4760
2017-04-03T06:29:44.456Z,4672
2017-04-03T06:30:25.042Z,4628
2017-04-03T06:31:05.623Z,4684
2017-04-03T06:31:46.207Z,4712
2017-04-03T06:32:26.788Z,4720
2017-04-03T06:33:07.348Z,4748
2017-04-03T06:33:47.936Z,4768
2017-04-03T06:34:28.519Z,4812
2017-04-03T06:35:09.108Z,4856
2017-04-03T06:35:49.680Z,4896
2017-04-03T06:36:30.259Z,4952
2017-04-03T06:37:10.841Z,5016
2017-04-03T06:37:51.421Z,5084
2017-04-03T06:38:32.000Z,5156
2017-04-03T06:39:12.577Z,5244
2017-04-03T06:39:53.160Z,5332
2017-04-03T06:40:33.732Z,5436
2017-04-03T06:41:14.316Z,5568
2017-04-03T06:41:54.895Z,5712
2017-04-03T06:42:35.470Z,5832
2017-04-03T06:43:16.054Z,5964
2017-04-03T06:43:56.627Z,6120
2017-04-03T06:44:37.201Z,6296
2017-04-03T06:45:17.783Z,6432
2017-04-03T06:45:58.358Z,6544
2017-04-03T06:46:38.943Z,6672
2017-04-03T06:47:19.522Z,6852
2017-04-03T06:48:00.108Z,7056
2017-04-03T06:48:40.691Z,7348
2017-04-03T06:49:21.262Z,8092
2017-04-03T06:50:01.847Z,9420
2017-04-03T06:50:42.428Z,8928
2017-04-03T06:51:23.006Z,9772
2017-04-03T06:52:03.588Z,9788
2017-04-03T06:52:44.168Z,10080
2017-04-03T06:55:17.353Z,11320
2017-04-03T06:55:57.931Z,12128
2017-04-03T06:56:38.507Z,14256
2017-04-03T06:57:19.094Z,19968
2017-04-03T06:57:59.678Z,17408
2017-04-03T06:58:40.251Z,19104
2017-04-03T06:59:20.833Z,24064
2017-04-03T07:00:01.411Z,24768
2017-04-03T07:00:41.990Z,23328
2017-04-03T07:01:22.576Z,30304
2017-04-03T07:02:03.159Z,31680
2017-04-03T07:02:43.740Z,31744
2017-04-03T07:03:24.325Z,32000
2017-04-03T07:04:04.909Z,32512
2017-04-03T07:04:45.494Z,30944
2017-04-03T07:05:26.071Z,30784
2017-04-03T07:06:06.653Z,32352
2017-04-03T07:06:47.228Z,34560
2017-04-03T07:07:27.801Z,36192
2017-04-03T07:08:08.387Z,37024
2017-04-03T07:08:48.968Z,37312
2017-04-03T07:09:29.552Z,37216
2017-04-03T07:10:10.136Z,36544
2017-04-03T07:10:50.721Z,38016
2017-04-03T07:11:31.307Z,37408
2017-04-03T07:12:11.890Z,37472
2017-04-03T07:12:52.478Z,38720
2017-04-03T07:13:33.055Z,38752
2017-04-03T07:14:13.641Z,39104
2017-04-03T07:14:54.232Z,39904
2017-04-03T07:15:49.539Z,40096
2017-04-03T07:16:30.125Z,39552
2017-04-03T07:17:10.708Z,36384
2017-04-03T07:17:51.291Z,35776
2017-04-03T07:18:31.870Z,29600
2017-04-03T07:19:12.460Z,22688
2017-04-03T07:19:53.042Z,19776
2017-04-03T07:20:33.627Z,18476
2017-04-03T07:21:14.219Z,18056
2017-04-03T07:21:54.800Z,17916
2017-04-03T07:22:35.375Z,17952
2017-04-03T07:23:15.955Z,18176
2017-04-03T07:23:56.546Z,18752
2017-04-03T07:24:37.131Z,21248
2017-04-03T07:25:17.721Z,25856
2017-04-03T07:25:58.306Z,31904
2017-04-03T07:26:38.885Z,31552
2017-04-03T07:27:19.472Z,27904
2017-04-03T07:28:00.062Z,29408
2017-04-03T07:28:40.641Z,26272
2017-04-03T07:29:21.223Z,29408
2017-04-03T07:30:01.810Z,26976
2017-04-03T07:30:42.395Z,24576
2017-04-03T07:31:22.973Z,30752
2017-04-03T07:32:03.571Z,34784
2017-04-03T07:32:44.151Z,38528
2017-04-03T07:33:24.742Z,38784
2017-04-03T07:34:05.327Z,42464
2017-04-03T07:34:45.905Z,41824
2017-04-03T07:35:26.496Z,43680
2017-04-03T07:36:07.074Z,42848
2017-04-03T07:36:47.660Z,43328
2017-04-03T07:37:28.248Z,43168
2017-04-03T07:38:08.836Z,43424
2017-04-03T07:38:49.419Z,43712
2017-04-03T07:39:30.004Z,43264
2017-04-03T07:40:10.592Z,42560
2017-04-03T07:40:51.178Z,40096
2017-04-03T07:41:31.757Z,36768
2017-04-03T07:42:12.348Z,32224
2017-04-03T07:42:52.923Z,22752
2017-04-03T07:43:33.510Z,23296
2017-04-03T07:44:14.098Z,24704
2017-04-03T07:44:54.671Z,28864
2017-04-03T07:45:35.248Z,30784
2017-04-03T07:46:15.845Z,29696
2017-04-03T07:46:56.430Z,27520
2017-04-03T07:47:37.018Z,25856
2017-04-03T07:48:17.603Z,31552
2017-04-03T07:48:58.188Z,35072
2017-04-03T07:49:38.774Z,36704
2017-04-03T07:50:19.365Z,35584
2017-04-03T07:50:59.941Z,35968
2017-04-03T07:51:40.529Z,38592
2017-04-03T07:52:21.112Z,40928
2017-04-03T07:53:01.699Z,39232
2017-04-03T07:53:42.290Z,38080
2017-04-03T07:54:22.879Z,35936
2017-04-03T07:55:03.465Z,36512
2017-04-03T07:55:44.057Z,36352
2017-04-03T07:56:24.633Z,39936
2017-04-03T07:57:05.215Z,40096
2017-04-03T07:57:45.794Z,38880
2017-04-03T07:58:26.379Z,36960
2017-04-03T07:59:06.968Z,37856
2017-04-03T07:59:47.553Z,37600
2017-04-03T08:00:28.140Z,34912
2017-04-03T08:01:08.719Z,38912
2017-04-03T08:01:49.293Z,41408
2017-04-03T08:02:44.557Z,42656
2017-04-03T08:03:25.142Z,43200
2017-04-03T08:04:05.734Z,42048
2017-04-03T08:04:46.309Z,38880
2017-04-03T08:05:26.898Z,35232
2017-04-03T08:06:07.472Z,28672
2017-04-03T08:06:48.058Z,26336
2017-04-03T08:07:28.648Z,27456
2017-04-03T08:08:09.233Z,27584
2017-04-03T08:08:49.825Z,25568
2017-04-03T08:09:30.435Z,30112
2017-04-03T08:10:10.980Z,40096
2017-04-03T08:10:51.562Z,37856
2017-04-03T08:11:32.145Z,40096
2017-04-03T08:12:12.735Z,41216
2017-04-03T08:12:53.306Z,39680
2017-04-03T08:13:33.890Z,40960
2017-04-03T08:14:14.478Z,37664
2017-04-03T08:14:55.057Z,33344
2017-04-03T08:15:35.640Z,29280
2017-04-03T08:16:16.257Z,32992
2017-04-03T08:16:56.830Z,27552
2017-04-03T08:17:37.406Z,30080
2017-04-03T08:18:17.986Z,26624
2017-04-03T08:18:58.576Z,25568
2017-04-03T08:19:39.159Z,31552
2017-04-03T08:20:19.747Z,41664
2017-04-03T08:21:00.333Z,42432
2017-04-03T08:21:40.919Z,42624
2017-04-03T08:22:21.503Z,40320
2017-04-03T08:23:16.787Z,40544
2017-04-03T08:23:57.376Z,38880
2017-04-03T08:24:37.963Z,32416
2017-04-03T08:25:18.554Z,39616
2017-04-03T08:25:59.139Z,40896
2017-04-03T08:26:39.726Z,40096
2017-04-03T08:27:20.313Z,41664
2017-04-03T08:28:00.900Z,40352
2017-04-03T08:28:41.487Z,42752
2017-04-03T08:29:22.070Z,44064
2017-04-03T08:30:02.659Z,41792
2017-04-03T08:30:43.239Z,46176
2017-04-03T08:31:38.815Z,45952
2017-04-03T08:32:19.398Z,45024
2017-04-03T08:32:59.988Z,44320
2017-04-03T08:33:40.569Z,44448
2017-04-03T08:34:21.165Z,43936
2017-04-03T08:35:01.749Z,43744
2017-04-03T08:35:42.331Z,43328
2017-04-03T08:36:22.923Z,39744
2017-04-03T08:37:03.514Z,35264
2017-04-03T08:37:44.091Z,34432
2017-04-03T08:38:24.671Z,29184
2017-04-03T08:39:05.253Z,24640
2017-04-03T08:39:45.840Z,22272
2017-04-03T08:40:26.431Z,21632
2017-04-03T08:41:07.012Z,23040
2017-04-03T08:41:47.598Z,20704
2017-04-03T08:42:28.185Z,20224
2017-04-03T08:43:08.771Z,19872
2017-04-03T08:43:49.349Z,19008
2017-04-03T08:44:29.928Z,17804
2017-04-03T08:45:10.511Z,16572
2017-04-03T08:45:51.100Z,15712
2017-04-03T08:46:31.686Z,15144
2017-04-03T08:47:12.276Z,14688
2017-04-03T08:47:52.855Z,14344
2017-04-03T08:48:33.444Z,13960
2017-04-03T08:49:14.035Z,13520
2017-04-03T08:49:54.618Z,13260
2017-04-03T08:50:35.205Z,13088
2017-04-03T08:51:15.819Z,12884
2017-04-03T08:51:56.375Z,12672
2017-04-03T08:52:36.947Z,12548
2017-04-03T08:53:17.521Z,12468
2017-04-03T08:53:58.120Z,12396
2017-04-03T08:54:38.707Z,12392
2017-04-03T08:55:19.298Z,12336
2017-04-03T08:55:59.878Z,12156
2017-04-03T08:56:40.476Z,11928
2017-04-03T08:57:21.064Z,11652
2017-04-03T08:58:01.652Z,11564
2017-04-03T08:58:42.244Z,11692
2017-04-03T08:59:37.574Z,12036
2017-04-03T09:00:18.167Z,12420
2017-04-03T09:00:58.746Z,12784
2017-04-03T09:01:39.324Z,13072
2017-04-03T09:02:19.917Z,13300
2017-04-03T09:03:00.508Z,13316
2017-04-03T09:03:41.091Z,13284
2017-04-03T09:04:21.670Z,13316
2017-04-03T09:05:02.258Z,13412
2017-04-03T09:05:42.845Z,13628
2017-04-03T09:06:23.439Z,13868
2017-04-03T09:07:04.023Z,13800
2017-04-03T09:07:44.605Z,13612
2017-04-03T09:08:25.185Z,13316
2017-04-03T09:09:05.776Z,12820
2017-04-03T09:09:46.361Z,12368
2017-04-03T09:10:26.941Z,12412
2017-04-03T09:11:07.524Z,12780
2017-04-03T09:11:48.105Z,13320
2017-04-03T09:12:28.685Z,13832
2017-04-03T09:13:09.265Z,14168
2017-04-03T09:13:49.848Z,14568
2017-04-03T09:14:30.433Z,15188
2017-04-03T09:15:11.020Z,15600
2017-04-03T09:15:51.605Z,15832
2017-04-03T09:16:32.190Z,15496
2017-04-03T09:17:12.778Z,13812
2017-04-03T09:17:53.367Z,13204
2017-04-03T09:18:33.957Z,12992
2017-04-03T09:19:14.542Z,13132
2017-04-03T09:19:55.127Z,13468
2017-04-03T09:20:35.709Z,13896
2017-04-03T09:21:16.300Z,14088
2017-04-03T09:21:56.893Z,14156
2017-04-03T09:22:37.480Z,14076
2017-04-03T09:23:18.064Z,13232
2017-04-03T09:23:58.654Z,12496
2017-04-03T09:24:39.235Z,12036
2017-04-03T09:25:19.813Z,11664
2017-04-03T09:26:00.403Z,11500
2017-04-03T09:26:40.990Z,11752
2017-04-03T09:27:21.572Z,12392
2017-04-03T09:28:02.162Z,13324
2017-04-03T09:28:42.745Z,14352
2017-04-03T09:29:23.334Z,15064
2017-04-03T09:30:03.914Z,15240
2017-04-03T09:30:44.498Z,15072
2017-04-03T09:31:25.079Z,14992
2017-04-03T09:32:06.198Z,14848
2017-04-03T09:32:46.787Z,14408
2017-04-03T09:33:27.371Z,14008
2017-04-03T09:34:07.954Z,13708
2017-04-03T09:34:48.544Z,13336
2017-04-03T09:35:29.126Z,13176
2017-04-03T09:36:09.713Z,13084
2017-04-03T09:36:50.299Z,13368
2017-04-03T09:39:23.499Z,14196
2017-04-03T09:40:04.084Z,14036
2017-04-03T09:42:37.267Z,15108
2017-04-03T09:43:17.856Z,14948
2017-04-03T09:43:58.437Z,14700
2017-04-03T09:44:39.021Z,14312
2017-04-03T09:45:19.606Z,14028
2017-04-03T09:46:00.192Z,13532
2017-04-03T09:46:40.778Z,12992
2017-04-03T09:47:21.359Z,13112
2017-04-03T09:48:01.945Z,14088
2017-04-03T09:48:42.533Z,15056
2017-04-03T09:49:39.956Z,15912
2017-04-03T09:50:20.545Z,16436
2017-04-03T09:51:01.128Z,16804
2017-04-03T09:51:41.709Z,16196
2017-04-03T09:52:22.295Z,15616